Maysville, Missouri
Current Conditions -  °F | °C
As of 11:53 AM on Friday 24 Oct 2014 (Local Time) from KSTJ Reporting Station
Broken Clouds Broken Clouds  
Wind Chill: 66°   Ceiling: 1000
Heat Index: 66°   Visibility: 9mi
Dew Point: 60°   Wind: 10mph
Humidity: 81%   Direction: 190°S
Pressure: 30.01"   Gusts: NA
Location:  39.89°N, 94.36°W
Report Text: KSTJ 241653Z 19009KT 9SM BKN010 19/16 A3001 RMK AO2 SLP159 T01890156
Loading
Personal Weather Stations






























Interactive Weather Map New forecast layout! Learn more

10-Day Weather Forecast

Advertisements
Track Severe Weather on mobile